Time;durP1;ratioP1;P1;durP2;ratioP2;P2;SDS_P1;SDS_P2;PMS_P1;PMS_P2;Temp;Humidity;BMP_temperature;BMP_pressure;BME280_temperature;BME280_humidity;BME280_pressure;Samples;Min_cycle;Max_cycle;Signal;HPM_P1;HPM_P2
2023/10/18 00:01:15;;;;;;;10.50;10.00;;;;;;;;;;5066916;28;20046;-60
2023/10/18 00:03:41;;;;;;;10.02;9.52;;;;;;;;;;5067378;28;20025;-60
2023/10/18 00:06:16;;;;;;;9.52;9.13;;;;;;;;;;5063157;28;20028;-61
2023/10/18 00:08:42;;;;;;;9.63;9.23;;;;;;;;;;5062597;28;20009;-61
2023/10/18 00:11:08;;;;;;;9.90;9.40;;;;;;;;;;5058546;28;20036;-61
2023/10/18 00:13:33;;;;;;;10.45;9.95;;;;;;;;;;5064951;28;20059;-62
2023/10/18 00:16:02;;;;;;;9.65;9.18;;;;;;;;;;5059313;28;20059;-60
2023/10/18 00:18:28;;;;;;;9.40;9.00;;;;;;;;;;5058027;28;20065;-60
2023/10/18 00:21:00;;;;;;;9.52;9.13;;;;;;;;;;5059921;28;20059;-60
2023/10/18 00:23:27;;;;;;;9.80;9.30;;;;;;;;;;5052177;28;20072;-61
2023/10/18 00:25:53;;;;;;;9.85;9.35;;;;;;;;;;5059085;28;20048;-61
2023/10/18 00:28:20;;;;;;;9.80;9.30;;;;;;;;;;5059250;28;20029;-62
2023/10/18 00:30:45;;;;;;;9.30;8.90;;;;;;;;;;5056342;28;20037;-62
2023/10/18 00:33:11;;;;;;;9.70;9.20;;;;;;;;;;5064397;28;20616;-62
2023/10/18 00:35:37;;;;;;;9.88;9.38;;;;;;;;;;5067350;28;20059;-61
2023/10/18 00:38:14;;;;;;;9.90;9.40;;;;;;;;;;5060322;28;20033;-61
2023/10/18 00:40:40;;;;;;;9.70;9.20;;;;;;;;;;5054649;28;20178;-62
2023/10/18 00:43:27;;;;;;;9.18;8.77;;;;;;;;;;5060051;28;20101;-60
2023/10/18 00:45:53;;;;;;;9.90;9.40;;;;;;;;;;5059731;28;20040;-61
2023/10/18 00:48:23;;;;;;;9.55;9.13;;;;;;;;;;5068453;28;20020;-63
2023/10/18 00:50:52;;;;;;;10.05;9.55;;;;;;;;;;5062325;28;20028;-61
2023/10/18 00:53:20;;;;;;;9.50;9.10;;;;;;;;;;5064034;28;20040;-62
2023/10/18 00:55:52;;;;;;;11.02;10.43;;;;;;;;;;5061709;28;20025;-61
2023/10/18 00:58:20;;;;;;;10.05;9.55;;;;;;;;;;5067993;28;20374;-62
2023/10/18 01:00:48;;;;;;;9.35;8.95;;;;;;;;;;5064509;28;20108;-60
2023/10/18 01:03:28;;;;;;;9.10;8.70;;;;;;;;;;5074631;28;20056;-61
2023/10/18 01:06:00;;;;;;;9.85;9.35;;;;;;;;;;5060052;28;20025;-61
2023/10/18 01:08:32;;;;;;;9.93;9.43;;;;;;;;;;5059563;28;20049;-62
2023/10/18 01:11:03;;;;;;;9.60;9.20;;;;;;;;;;5069204;28;20078;-63
2023/10/18 01:13:29;;;;;;;9.48;9.07;;;;;;;;;;5067213;28;20040;-61
2023/10/18 01:15:54;;;;;;;9.93;9.43;;;;;;;;;;5061742;28;20159;-62
2023/10/18 01:18:21;;;;;;;10.02;9.52;;;;;;;;;;5059253;28;20070;-61
2023/10/18 01:20:47;;;;;;;9.75;9.25;;;;;;;;;;5064557;28;20024;-61
2023/10/18 01:23:12;;;;;;;9.70;9.25;;;;;;;;;;5063606;28;20044;-61
2023/10/18 01:25:38;;;;;;;10.43;9.93;;;;;;;;;;5058394;28;20023;-61
2023/10/18 01:28:05;;;;;;;9.48;9.07;;;;;;;;;;5065484;28;20154;-61
2023/10/18 01:30:31;;;;;;;10.00;9.50;;;;;;;;;;5062203;28;20033;-61
2023/10/18 01:32:56;;;;;;;10.15;9.65;;;;;;;;;;5062367;28;20020;-62
2023/10/18 01:35:21;;;;;;;9.90;9.40;;;;;;;;;;5059953;28;20059;-61
2023/10/18 01:37:49;;;;;;;9.40;9.00;;;;;;;;;;5063413;28;20032;-60
2023/10/18 01:40:21;;;;;;;9.98;9.48;;;;;;;;;;5058988;28;20127;-60
2023/10/18 01:42:50;;;;;;;9.70;9.20;;;;;;;;;;5066580;28;20016;-63
2023/10/18 01:45:21;;;;;;;9.90;9.40;;;;;;;;;;5063717;28;20124;-62
2023/10/18 01:47:48;;;;;;;9.93;9.43;;;;;;;;;;5061371;28;20102;-61
2023/10/18 01:50:15;;;;;;;9.20;8.80;;;;;;;;;;5063276;28;20036;-62
2023/10/18 01:52:41;;;;;;;9.60;9.13;;;;;;;;;;5057178;28;20633;-61
2023/10/18 01:55:09;;;;;;;10.20;9.70;;;;;;;;;;5062312;28;20029;-61
2023/10/18 01:57:34;;;;;;;9.48;9.07;;;;;;;;;;5059611;28;20402;-62
2023/10/18 02:00:00;;;;;;;9.93;9.43;;;;;;;;;;5060537;28;20017;-61
2023/10/18 02:02:26;;;;;;;9.70;9.20;;;;;;;;;;5066001;28;20469;-60
2023/10/18 02:04:53;;;;;;;9.75;9.25;;;;;;;;;;5061811;28;20025;-61
2023/10/18 02:07:19;;;;;;;9.73;9.23;;;;;;;;;;5063181;28;20032;-61
2023/10/18 02:09:47;;;;;;;9.55;9.15;;;;;;;;;;5063760;28;20710;-61
2023/10/18 02:12:13;;;;;;;9.73;9.23;;;;;;;;;;5065980;28;20028;-61
2023/10/18 02:14:38;;;;;;;9.88;9.38;;;;;;;;;;5063661;28;20043;-62
2023/10/18 02:17:09;;;;;;;9.77;9.27;;;;;;;;;;5056342;28;20040;-62
2023/10/18 02:19:36;;;;;;;9.90;9.40;;;;;;;;;;5057565;28;20035;-62
2023/10/18 02:22:02;;;;;;;9.07;8.68;;;;;;;;;;5063951;28;20025;-61
2023/10/18 02:24:27;;;;;;;9.38;8.98;;;;;;;;;;5062673;28;20040;-62
2023/10/18 02:26:56;;;;;;;8.98;8.57;;;;;;;;;;5070267;28;20107;-62
2023/10/18 02:29:22;;;;;;;9.50;9.00;;;;;;;;;;5065378;28;20024;-62
2023/10/18 02:31:49;;;;;;;9.90;9.40;;;;;;;;;;5063333;28;20031;-61
2023/10/18 02:34:14;;;;;;;9.30;8.90;;;;;;;;;;5059753;28;20409;-62
2023/10/18 02:36:46;;;;;;;9.63;9.13;;;;;;;;;;5058938;28;20152;-62
2023/10/18 02:39:12;;;;;;;9.57;9.07;;;;;;;;;;5062357;28;20043;-62
2023/10/18 02:41:38;;;;;;;9.40;9.00;;;;;;;;;;5063537;28;20581;-61
2023/10/18 02:44:10;;;;;;;9.98;9.48;;;;;;;;;;5067649;28;20031;-61
2023/10/18 02:46:35;;;;;;;9.82;9.32;;;;;;;;;;5065945;28;20016;-61
2023/10/18 02:49:01;;;;;;;9.40;8.98;;;;;;;;;;5066960;28;20020;-61
2023/10/18 02:51:26;;;;;;;8.90;8.50;;;;;;;;;;5066299;28;20405;-61
2023/10/18 02:54:35;;;;;;;9.95;9.45;;;;;;;;;;5065847;28;20067;-61
2023/10/18 02:56:41;;;;;;;9.30;8.90;;;;;;;;;;5061315;28;20059;-61
2023/10/18 02:59:07;;;;;;;9.88;9.38;;;;;;;;;;5060727;28;20028;-61
2023/10/18 03:01:42;;;;;;;10.75;10.15;;;;;;;;;;5061195;28;20107;-60
2023/10/18 03:04:09;;;;;;;9.93;9.43;;;;;;;;;;5065117;28;20142;-61
2023/10/18 03:06:37;;;;;;;10.02;9.52;;;;;;;;;;5055505;28;20044;-62
2023/10/18 03:09:03;;;;;;;9.38;8.98;;;;;;;;;;5066747;28;20027;-62
2023/10/18 03:11:31;;;;;;;8.85;8.45;;;;;;;;;;5063411;28;20033;-62
2023/10/18 03:14:01;;;;;;;9.38;8.98;;;;;;;;;;5069275;28;20565;-62
2023/10/18 03:18:59;;;;;;;9.35;8.95;;;;;;;;;;5064659;28;20540;-61
2023/10/18 03:21:26;;;;;;;9.68;9.18;;;;;;;;;;5065297;28;20062;-62
2023/10/18 03:23:51;;;;;;;9.63;9.15;;;;;;;;;;5062880;28;20103;-61
2023/10/18 03:26:22;;;;;;;9.95;9.45;;;;;;;;;;5061903;28;20104;-61
2023/10/18 03:28:50;;;;;;;10.20;9.70;;;;;;;;;;5065365;28;20378;-61
2023/10/18 03:31:24;;;;;;;9.38;8.98;;;;;;;;;;5061222;28;20048;-61
2023/10/18 03:33:53;;;;;;;9.52;9.07;;;;;;;;;;5059833;28;20024;-62
2023/10/18 03:36:25;;;;;;;9.30;8.90;;;;;;;;;;5065508;28;20028;-63
2023/10/18 03:38:54;;;;;;;10.40;9.90;;;;;;;;;;5062504;28;20028;-61
2023/10/18 03:41:19;;;;;;;9.80;9.30;;;;;;;;;;5064336;28;20059;-61
2023/10/18 03:43:48;;;;;;;9.73;9.23;;;;;;;;;;5064263;28;20071;-61
2023/10/18 03:46:18;;;;;;;9.30;8.90;;;;;;;;;;5075762;28;20043;-60
2023/10/18 03:48:55;;;;;;;9.40;9.00;;;;;;;;;;5069322;28;20043;-61
2023/10/18 03:51:23;;;;;;;10.25;9.75;;;;;;;;;;5061358;28;20028;-60
2023/10/18 03:53:55;;;;;;;9.60;9.15;;;;;;;;;;5064883;28;20131;-61
2023/10/18 03:56:25;;;;;;;9.30;8.90;;;;;;;;;;5065618;28;20036;-59
2023/10/18 03:59:00;;;;;;;10.43;9.93;;;;;;;;;;5070271;28;20123;-62
2023/10/18 04:01:26;;;;;;;10.40;9.90;;;;;;;;;;5063566;28;20401;-62
2023/10/18 04:03:52;;;;;;;9.25;8.85;;;;;;;;;;5061741;28;20033;-61
2023/10/18 04:06:28;;;;;;;10.25;9.75;;;;;;;;;;5058847;28;20035;-60
2023/10/18 04:08:53;;;;;;;9.55;9.05;;;;;;;;;;5058146;28;20512;-61
2023/10/18 04:11:26;;;;;;;10.05;9.55;;;;;;;;;;5064847;28;20055;-61
2023/10/18 04:13:52;;;;;;;9.47;8.97;;;;;;;;;;5062117;28;20405;-61
2023/10/18 04:16:18;;;;;;;9.63;9.13;;;;;;;;;;5061424;28;20029;-62
2023/10/18 04:18:43;;;;;;;10.20;9.70;;;;;;;;;;5066895;28;20068;-62
2023/10/18 04:21:15;;;;;;;10.00;9.50;;;;;;;;;;5061921;28;20028;-62
2023/10/18 04:23:46;;;;;;;9.50;9.05;;;;;;;;;;5059931;28;20025;-61
2023/10/18 04:26:18;;;;;;;9.63;9.13;;;;;;;;;;5061912;28;20501;-62
2023/10/18 04:28:45;;;;;;;9.88;9.38;;;;;;;;;;5062575;28;20029;-61
2023/10/18 04:31:12;;;;;;;9.90;9.40;;;;;;;;;;5059462;28;20436;-61
2023/10/18 04:33:49;;;;;;;10.57;10.00;;;;;;;;;;5057130;28;20512;-61
2023/10/18 04:36:15;;;;;;;10.60;10.00;;;;;;;;;;5061209;28;20028;-62
2023/10/18 04:38:44;;;;;;;9.95;9.45;;;;;;;;;;5064860;28;20032;-62
2023/10/18 04:41:28;;;;;;;9.65;9.15;;;;;;;;;;5062795;28;20036;-59
2023/10/18 04:44:00;;;;;;;10.52;9.93;;;;;;;;;;5063537;28;20017;-57
2023/10/18 04:46:28;;;;;;;10.55;9.98;;;;;;;;;;5058561;28;20062;-60
2023/10/18 04:51:28;;;;;;;9.60;9.10;;;;;;;;;;5065623;28;20017;-60
2023/10/18 04:53:58;;;;;;;9.50;9.00;;;;;;;;;;5064192;28;20515;-59
2023/10/18 04:56:37;;;;;;;10.18;9.68;;;;;;;;;;5060831;28;20021;-58
2023/10/18 04:59:10;;;;;;;10.82;10.23;;;;;;;;;;5059551;28;20036;-59
2023/10/18 05:01:36;;;;;;;10.07;9.57;;;;;;;;;;5060135;28;20067;-59
2023/10/18 05:06:55;;;;;;;9.55;9.15;;;;;;;;;;5056355;28;20075;-59
2023/10/18 05:09:31;;;;;;;9.32;8.93;;;;;;;;;;5056863;28;20025;-58
2023/10/18 05:12:06;;;;;;;9.95;9.50;;;;;;;;;;5057842;28;20497;-57
2023/10/18 05:14:43;;;;;;;11.13;10.63;;;;;;;;;;5058215;28;20087;-61
2023/10/18 05:17:21;;;;;;;9.68;9.27;;;;;;;;;;5059540;28;20102;-60
2023/10/18 05:19:47;;;;;;;10.27;9.77;;;;;;;;;;5054545;28;20027;-60
2023/10/18 05:22:25;;;;;;;10.77;10.27;;;;;;;;;;5060154;28;20025;-61
2023/10/18 05:27:46;;;;;;;11.00;10.50;;;;;;;;;;5052504;28;20120;-62
2023/10/18 05:30:15;;;;;;;10.70;10.20;;;;;;;;;;5060221;28;20027;-61
2023/10/18 05:33:47;;;;;;;10.70;10.20;;;;;;;;;;5062215;28;20025;-61
2023/10/18 05:35:34;;;;;;;10.70;10.20;;;;;;;;;;5054944;28;20048;-62
2023/10/18 05:37:59;;;;;;;10.73;10.23;;;;;;;;;;5061911;28;20013;-62
2023/10/18 05:43:13;;;;;;;11.25;10.75;;;;;;;;;;5056703;28;20091;-60
2023/10/18 05:45:41;;;;;;;11.38;10.88;;;;;;;;;;5065054;28;20024;-61
2023/10/18 05:48:13;;;;;;;11.50;11.00;;;;;;;;;;5059412;28;20147;-62
2023/10/18 05:50:39;;;;;;;11.40;10.90;;;;;;;;;;5060964;28;20070;-61
2023/10/18 05:53:11;;;;;;;11.60;11.10;;;;;;;;;;5057159;28;20025;-62
2023/10/18 05:55:38;;;;;;;11.57;11.07;;;;;;;;;;5060726;28;20021;-62
2023/10/18 05:58:06;;;;;;;11.30;10.80;;;;;;;;;;5066487;28;20074;-62
2023/10/18 06:00:35;;;;;;;11.20;10.70;;;;;;;;;;5067645;28;20392;-62
2023/10/18 06:03:01;;;;;;;11.23;10.73;;;;;;;;;;5066720;28;20024;-61
2023/10/18 06:05:33;;;;;;;11.52;11.02;;;;;;;;;;5061862;28;20025;-60
2023/10/18 06:08:02;;;;;;;11.32;10.82;;;;;;;;;;5063665;28;20033;-61
2023/10/18 06:10:27;;;;;;;11.55;11.05;;;;;;;;;;5067731;28;20029;-60
2023/10/18 06:15:50;;;;;;;11.90;11.40;;;;;;;;;;5035803;28;20040;-62
2023/10/18 06:18:40;;;;;;;11.70;11.20;;;;;;;;;;5062043;28;20444;-62
2023/10/18 06:21:08;;;;;;;11.90;11.40;;;;;;;;;;5059083;28;20044;-61
2023/10/18 06:26:08;;;;;;;12.17;11.67;;;;;;;;;;5061151;28;20109;-61
2023/10/18 06:28:37;;;;;;;11.80;11.30;;;;;;;;;;5068044;28;20326;-62
2023/10/18 06:31:03;;;;;;;11.80;11.30;;;;;;;;;;5067840;28;20020;-62
2023/10/18 06:33:35;;;;;;;11.80;11.30;;;;;;;;;;5059221;28;20440;-62
2023/10/18 06:36:13;;;;;;;11.80;11.30;;;;;;;;;;5051769;28;20020;-67
2023/10/18 06:38:38;;;;;;;11.85;11.35;;;;;;;;;;5064455;28;20028;-65
2023/10/18 06:41:10;;;;;;;11.60;11.10;;;;;;;;;;5058896;28;20079;-66
2023/10/18 06:43:36;;;;;;;11.82;11.32;;;;;;;;;;5059687;28;20025;-66
2023/10/18 06:46:04;;;;;;;11.85;11.35;;;;;;;;;;5066503;28;20065;-66
2023/10/18 06:48:30;;;;;;;12.10;11.60;;;;;;;;;;5065177;28;20048;-65
2023/10/18 06:50:57;;;;;;;11.93;11.43;;;;;;;;;;5061168;28;20036;-65
2023/10/18 06:53:23;;;;;;;11.82;11.32;;;;;;;;;;5056634;28;20025;-65
2023/10/18 06:55:58;;;;;;;11.90;11.40;;;;;;;;;;5062671;28;20535;-67
2023/10/18 07:00:53;;;;;;;12.20;11.70;;;;;;;;;;5057027;28;20032;-63
2023/10/18 07:03:18;;;;;;;12.10;11.60;;;;;;;;;;5069374;28;20032;-66
2023/10/18 07:05:51;;;;;;;12.02;11.52;;;;;;;;;;5063043;28;20086;-66
2023/10/18 07:08:19;;;;;;;12.07;11.57;;;;;;;;;;5057880;28;20025;-66
2023/10/18 07:10:57;;;;;;;12.15;11.65;;;;;;;;;;5057468;28;20826;-66
2023/10/18 07:13:32;;;;;;;11.60;11.10;;;;;;;;;;5058166;28;20052;-67
2023/10/18 07:16:02;;;;;;;11.80;11.30;;;;;;;;;;5055355;28;20036;-66
2023/10/18 07:18:27;;;;;;;11.75;11.25;;;;;;;;;;5059323;28;20485;-66
2023/10/18 07:20:59;;;;;;;12.20;11.70;;;;;;;;;;5064980;28;20039;-65
2023/10/18 07:23:26;;;;;;;11.65;11.15;;;;;;;;;;5066807;28;20762;-65
2023/10/18 07:25:52;;;;;;;12.00;11.50;;;;;;;;;;5058343;28;20031;-65
2023/10/18 07:28:21;;;;;;;11.88;11.38;;;;;;;;;;5063418;28;20021;-66
2023/10/18 07:30:47;;;;;;;12.20;11.70;;;;;;;;;;5062549;28;20090;-66
2023/10/18 07:33:12;;;;;;;11.93;11.43;;;;;;;;;;5061317;28;20029;-65
2023/10/18 07:35:39;;;;;;;11.77;11.27;;;;;;;;;;5055473;28;20413;-65
2023/10/18 07:38:05;;;;;;;11.95;11.45;;;;;;;;;;5054351;28;20028;-65
2023/10/18 07:40:33;;;;;;;12.45;11.90;;;;;;;;;;5058014;28;20432;-65
2023/10/18 07:43:08;;;;;;;12.27;11.77;;;;;;;;;;5058025;28;20078;-66
2023/10/18 07:45:33;;;;;;;12.48;11.90;;;;;;;;;;5061874;28;20055;-64
2023/10/18 07:47:59;;;;;;;12.07;11.57;;;;;;;;;;5058826;28;21283;-66
2023/10/18 07:53:05;;;;;;;12.00;11.50;;;;;;;;;;5063942;28;20062;-67
2023/10/18 07:55:36;;;;;;;11.82;11.32;;;;;;;;;;5066645;28;20025;-67
2023/10/18 07:58:17;;;;;;;11.75;11.25;;;;;;;;;;5056128;28;20016;-66
2023/10/18 08:00:52;;;;;;;11.65;11.15;;;;;;;;;;5061183;28;20032;-65
2023/10/18 08:03:18;;;;;;;11.73;11.23;;;;;;;;;;5068417;28;20416;-65
2023/10/18 08:05:50;;;;;;;11.82;11.32;;;;;;;;;;5065266;28;20024;-65
2023/10/18 08:08:15;;;;;;;12.10;11.60;;;;;;;;;;5067554;28;21659;-65
2023/10/18 08:10:42;;;;;;;12.30;11.80;;;;;;;;;;5054125;28;20024;-65
2023/10/18 08:13:10;;;;;;;11.90;11.40;;;;;;;;;;5059755;28;20301;-65
2023/10/18 08:15:36;;;;;;;12.10;11.60;;;;;;;;;;5059999;28;20024;-64
2023/10/18 08:18:17;;;;;;;12.18;11.68;;;;;;;;;;5055517;28;20028;-65
2023/10/18 08:21:06;;;;;;;12.15;11.65;;;;;;;;;;5059733;28;20013;-65
2023/10/18 08:26:06;;;;;;;12.20;11.70;;;;;;;;;;5055886;28;20027;-62
2023/10/18 08:28:40;;;;;;;11.93;11.43;;;;;;;;;;5058079;28;20024;-62
2023/10/18 08:31:10;;;;;;;12.05;11.55;;;;;;;;;;5060939;28;20489;-62
2023/10/18 08:33:35;;;;;;;12.10;11.60;;;;;;;;;;5057768;28;20028;-64
2023/10/18 08:36:07;;;;;;;11.85;11.35;;;;;;;;;;5059896;28;20504;-64
2023/10/18 08:38:33;;;;;;;12.02;11.52;;;;;;;;;;5058010;28;20588;-64
2023/10/18 08:41:14;;;;;;;11.90;11.40;;;;;;;;;;5060856;28;20024;-66
2023/10/18 08:43:58;;;;;;;12.13;11.63;;;;;;;;;;5058676;28;20031;-64
2023/10/18 08:46:24;;;;;;;11.82;11.32;;;;;;;;;;5060688;28;20019;-63
2023/10/18 08:48:51;;;;;;;11.82;11.32;;;;;;;;;;5057568;28;20024;-63
2023/10/18 08:51:18;;;;;;;11.73;11.23;;;;;;;;;;5057704;28;20094;-64
2023/10/18 08:53:43;;;;;;;11.65;11.15;;;;;;;;;;5062385;28;20032;-66
2023/10/18 08:56:09;;;;;;;12.07;11.57;;;;;;;;;;5067751;28;20091;-65
2023/10/18 08:58:36;;;;;;;12.30;11.80;;;;;;;;;;5059510;28;20060;-65
2023/10/18 09:03:27;;;;;;;12.18;11.68;;;;;;;;;;5063327;28;20025;-65
2023/10/18 09:06:05;;;;;;;12.25;11.75;;;;;;;;;;5058472;28;20385;-63
2023/10/18 09:08:38;;;;;;;11.90;11.40;;;;;;;;;;5054912;28;20052;-66
2023/10/18 09:11:09;;;;;;;12.13;11.63;;;;;;;;;;5058958;28;20036;-66
2023/10/18 09:13:37;;;;;;;12.43;11.82;;;;;;;;;;5055057;28;20322;-64
2023/10/18 09:16:04;;;;;;;11.88;11.38;;;;;;;;;;5059515;28;20031;-66
2023/10/18 09:18:34;;;;;;;11.98;11.48;;;;;;;;;;5052768;28;20058;-64
2023/10/18 09:24:00;;;;;;;11.43;10.93;;;;;;;;;;5048706;28;20371;-63
2023/10/18 09:26:28;;;;;;;12.43;11.82;;;;;;;;;;5058085;28;20041;-66
2023/10/18 09:28:59;;;;;;;12.90;12.30;;;;;;;;;;5058581;28;20402;-65
2023/10/18 09:31:24;;;;;;;13.30;12.70;;;;;;;;;;5058095;28;20028;-64
2023/10/18 09:33:51;;;;;;;12.27;11.68;;;;;;;;;;5054585;28;20048;-65
2023/10/18 09:36:20;;;;;;;13.43;12.82;;;;;;;;;;5053527;28;20119;-64
2023/10/18 09:38:50;;;;;;;12.27;11.68;;;;;;;;;;5061952;28;20039;-64
2023/10/18 09:41:18;;;;;;;12.35;11.75;;;;;;;;;;5058655;28;20405;-65
2023/10/18 09:43:45;;;;;;;12.95;12.35;;;;;;;;;;5059227;28;20044;-65
2023/10/18 09:46:11;;;;;;;11.93;11.32;;;;;;;;;;5061384;28;20032;-65
2023/10/18 09:48:41;;;;;;;12.20;11.60;;;;;;;;;;5065173;28;20012;-64
2023/10/18 09:51:06;;;;;;;12.77;12.18;;;;;;;;;;5059451;28;20520;-65
2023/10/18 09:53:51;;;;;;;12.50;11.90;;;;;;;;;;5063575;28;20020;-64
2023/10/18 09:56:18;;;;;;;12.63;12.02;;;;;;;;;;5062184;28;20079;-63
2023/10/18 09:58:46;;;;;;;12.05;11.45;;;;;;;;;;5056366;28;20115;-65
2023/10/18 10:01:52;;;;;;;11.85;11.32;;;;;;;;;;5055780;28;20024;-65
2023/10/18 10:04:03;;;;;;;12.45;11.85;;;;;;;;;;5063643;28;20017;-65
2023/10/18 10:06:29;;;;;;;12.52;11.93;;;;;;;;;;5054450;28;20053;-66
2023/10/18 10:09:09;;;;;;;12.15;11.55;;;;;;;;;;5062620;28;20063;-65
2023/10/18 10:11:36;;;;;;;12.18;11.57;;;;;;;;;;5062758;28;20033;-65
2023/10/18 10:14:03;;;;;;;13.13;12.52;;;;;;;;;;5061328;28;20135;-64
2023/10/18 10:16:30;;;;;;;12.55;11.95;;;;;;;;;;5062319;28;20029;-64
2023/10/18 10:18:56;;;;;;;12.18;11.57;;;;;;;;;;5060406;28;20113;-65
2023/10/18 10:21:23;;;;;;;12.63;12.02;;;;;;;;;;5062414;28;20028;-66
2023/10/18 10:23:55;;;;;;;12.15;11.55;;;;;;;;;;5055984;28;20397;-68
2023/10/18 10:26:27;;;;;;;12.32;11.73;;;;;;;;;;5062093;28;20012;-64
2023/10/18 10:31:53;;;;;;;11.38;10.88;;;;;;;;;;5055979;28;20044;-64
2023/10/18 10:34:26;;;;;;;11.32;10.82;;;;;;;;;;5061402;28;20039;-63
2023/10/18 10:36:52;;;;;;;12.00;11.43;;;;;;;;;;5063748;28;20020;-62
2023/10/18 10:39:24;;;;;;;11.45;10.95;;;;;;;;;;5063797;28;20027;-63
2023/10/18 10:41:50;;;;;;;10.85;10.35;;;;;;;;;;5058248;28;20075;-63
2023/10/18 10:44:23;;;;;;;12.07;11.48;;;;;;;;;;5057681;28;20091;-64
2023/10/18 10:46:50;;;;;;;12.52;11.93;;;;;;;;;;5062430;28;20028;-63
2023/10/18 10:49:41;;;;;;;12.30;11.70;;;;;;;;;;5067109;28;20017;-63
2023/10/18 10:52:07;;;;;;;11.80;11.27;;;;;;;;;;5058358;28;20025;-65
2023/10/18 10:54:37;;;;;;;12.73;12.13;;;;;;;;;;5059870;28;20071;-65
2023/10/18 10:57:04;;;;;;;12.23;11.63;;;;;;;;;;5057034;28;20036;-64
2023/10/18 10:59:35;;;;;;;12.45;11.85;;;;;;;;;;5064328;28;20032;-63
2023/10/18 11:02:07;;;;;;;12.27;11.68;;;;;;;;;;5060918;28;20028;-64
2023/10/18 11:07:23;;;;;;;11.98;11.38;;;;;;;;;;5056630;28;20718;-64
2023/10/18 11:09:49;;;;;;;12.48;11.88;;;;;;;;;;5059133;28;20048;-65
2023/10/18 11:12:14;;;;;;;11.20;10.70;;;;;;;;;;5066374;28;20054;-63
2023/10/18 11:14:42;;;;;;;12.45;11.85;;;;;;;;;;5061858;28;20028;-65
2023/10/18 11:19:51;;;;;;;11.80;11.30;;;;;;;;;;5059379;28;20029;-65
2023/10/18 11:22:19;;;;;;;11.57;11.07;;;;;;;;;;5063650;28;20618;-63
2023/10/18 11:24:52;;;;;;;12.48;11.88;;;;;;;;;;5058410;28;20067;-65
2023/10/18 11:27:21;;;;;;;11.82;11.32;;;;;;;;;;5058262;28;20051;-64
2023/10/18 11:29:47;;;;;;;12.43;11.82;;;;;;;;;;5064817;28;20031;-64
2023/10/18 11:32:18;;;;;;;12.18;11.57;;;;;;;;;;5059913;28;20929;-63
2023/10/18 11:34:46;;;;;;;12.30;11.70;;;;;;;;;;5062902;28;20107;-64
2023/10/18 11:37:34;;;;;;;11.98;11.40;;;;;;;;;;5061639;28;20115;-63
2023/10/18 11:40:07;;;;;;;11.77;11.27;;;;;;;;;;5058869;28;20028;-64
2023/10/18 11:42:51;;;;;;;12.68;12.07;;;;;;;;;;5058416;28;20501;-62
2023/10/18 11:45:19;;;;;;;12.43;11.82;;;;;;;;;;5059388;28;20024;-63
2023/10/18 11:47:48;;;;;;;12.30;11.70;;;;;;;;;;5064752;28;20044;-65
2023/10/18 11:50:13;;;;;;;12.30;11.70;;;;;;;;;;5059364;28;20044;-64
2023/10/18 11:52:41;;;;;;;12.30;11.70;;;;;;;;;;5060298;28;20434;-65
2023/10/18 11:55:09;;;;;;;11.82;11.32;;;;;;;;;;5053337;28;20063;-66
2023/10/18 11:57:40;;;;;;;12.10;11.50;;;;;;;;;;5061491;28;20032;-63
2023/10/18 12:02:49;;;;;;;12.63;12.02;;;;;;;;;;5062714;28;20029;-64
2023/10/18 12:05:15;;;;;;;11.93;11.38;;;;;;;;;;5059301;28;20031;-65
2023/10/18 12:07:44;;;;;;;11.98;11.40;;;;;;;;;;5058427;28;20023;-66
2023/10/18 12:10:34;;;;;;;12.43;11.82;;;;;;;;;;5059985;28;20031;-65
2023/10/18 12:13:02;;;;;;;11.75;11.25;;;;;;;;;;5056512;28;20036;-63
2023/10/18 12:15:30;;;;;;;12.13;11.52;;;;;;;;;;5058517;28;20029;-63
2023/10/18 12:17:55;;;;;;;11.95;11.40;;;;;;;;;;5060116;28;20039;-64
2023/10/18 12:20:25;;;;;;;12.10;11.50;;;;;;;;;;5058055;28;20020;-64
2023/10/18 12:22:51;;;;;;;11.93;11.40;;;;;;;;;;5062948;28;20021;-64
2023/10/18 12:25:20;;;;;;;11.77;11.27;;;;;;;;;;5059506;28;20025;-64
2023/10/18 12:27:52;;;;;;;11.73;11.23;;;;;;;;;;5057298;28;20485;-65
2023/10/18 12:30:35;;;;;;;11.98;11.43;;;;;;;;;;5058584;28;20024;-64
2023/10/18 12:33:05;;;;;;;12.32;11.73;;;;;;;;;;5050531;28;20025;-63
2023/10/18 12:35:31;;;;;;;12.13;11.52;;;;;;;;;;5052866;28;20552;-64
2023/10/18 12:37:56;;;;;;;11.88;11.35;;;;;;;;;;5059637;28;20013;-64
2023/10/18 12:41:06;;;;;;;12.43;11.82;;;;;;;;;;5059694;28;20499;-66
2023/10/18 12:43:17;;;;;;;11.90;11.38;;;;;;;;;;5058782;28;20040;-64
2023/10/18 12:45:45;;;;;;;12.32;11.73;;;;;;;;;;5059955;28;20122;-64
2023/10/18 12:48:11;;;;;;;12.07;11.48;;;;;;;;;;5057943;28;20016;-66
2023/10/18 12:50:37;;;;;;;12.73;12.13;;;;;;;;;;5061757;28;20508;-64
2023/10/18 12:55:47;;;;;;;11.80;11.30;;;;;;;;;;5058572;28;20035;-65
2023/10/18 12:58:18;;;;;;;11.70;11.20;;;;;;;;;;5056743;28;20699;-65
2023/10/18 13:00:53;;;;;;;12.35;11.75;;;;;;;;;;5056893;28;20032;-65
2023/10/18 13:03:22;;;;;;;12.55;11.95;;;;;;;;;;5062616;28;20392;-63
2023/10/18 13:05:52;;;;;;;11.40;10.90;;;;;;;;;;5059696;28;20024;-65
2023/10/18 13:08:22;;;;;;;12.15;11.55;;;;;;;;;;5055041;28;20021;-63
2023/10/18 13:10:57;;;;;;;12.55;11.95;;;;;;;;;;5057533;28;20072;-65
2023/10/18 13:13:23;;;;;;;12.15;11.55;;;;;;;;;;5053146;28;20468;-64
2023/10/18 13:15:48;;;;;;;11.52;11.02;;;;;;;;;;5055809;28;20029;-65
2023/10/18 13:18:14;;;;;;;12.30;11.70;;;;;;;;;;5060948;28;20028;-64
2023/10/18 13:20:43;;;;;;;12.68;12.07;;;;;;;;;;5057136;28;20029;-64
2023/10/18 13:23:09;;;;;;;12.40;11.80;;;;;;;;;;5052875;28;20075;-64
2023/10/18 13:25:37;;;;;;;11.77;11.27;;;;;;;;;;5064492;28;20051;-66
2023/10/18 13:28:05;;;;;;;11.52;11.02;;;;;;;;;;5059205;28;20442;-68
2023/10/18 13:30:43;;;;;;;11.57;11.07;;;;;;;;;;5051684;28;20488;-66
2023/10/18 13:33:12;;;;;;;12.02;11.43;;;;;;;;;;5054728;28;20024;-64
2023/10/18 13:35:41;;;;;;;11.60;11.10;;;;;;;;;;5057786;28;20489;-63
2023/10/18 13:38:07;;;;;;;12.48;11.88;;;;;;;;;;5055701;28;20621;-63
2023/10/18 13:40:36;;;;;;;11.88;11.32;;;;;;;;;;5061931;28;20111;-63
2023/10/18 13:43:03;;;;;;;11.90;11.32;;;;;;;;;;5050951;28;20066;-64
2023/10/18 13:45:28;;;;;;;12.07;11.48;;;;;;;;;;5053239;28;20017;-63
2023/10/18 13:47:58;;;;;;;11.57;11.07;;;;;;;;;;5053463;28;20017;-63
2023/10/18 13:50:25;;;;;;;12.43;11.82;;;;;;;;;;5056176;28;20064;-63
2023/10/18 13:52:50;;;;;;;12.40;11.80;;;;;;;;;;5060313;28;20059;-64
2023/10/18 13:55:18;;;;;;;12.45;11.85;;;;;;;;;;5056793;28;20056;-65
2023/10/18 13:57:45;;;;;;;12.43;11.82;;;;;;;;;;5057677;28;20106;-63
2023/10/18 14:00:14;;;;;;;11.95;11.43;;;;;;;;;;5054431;28;20082;-62
2023/10/18 14:02:41;;;;;;;12.00;11.40;;;;;;;;;;5058368;28;20489;-63
2023/10/18 14:05:07;;;;;;;12.50;11.90;;;;;;;;;;5059907;28;20032;-63
2023/10/18 14:07:36;;;;;;;11.70;11.20;;;;;;;;;;5058227;28;20028;-65
2023/10/18 14:10:19;;;;;;;11.85;11.32;;;;;;;;;;5056975;28;20039;-64
2023/10/18 14:12:44;;;;;;;12.15;11.55;;;;;;;;;;5052625;28;20421;-63
2023/10/18 14:15:10;;;;;;;11.20;10.70;;;;;;;;;;5055738;28;20029;-64
2023/10/18 14:17:36;;;;;;;11.10;10.60;;;;;;;;;;5064617;28;20055;-64
2023/10/18 14:20:10;;;;;;;12.02;11.43;;;;;;;;;;5066557;28;20032;-62
2023/10/18 14:22:36;;;;;;;12.07;11.48;;;;;;;;;;5057604;28;20039;-64
2023/10/18 14:25:04;;;;;;;10.98;10.48;;;;;;;;;;5065718;28;20021;-65
2023/10/18 14:27:29;;;;;;;11.40;10.90;;;;;;;;;;5065704;28;20026;-64
2023/10/18 14:29:55;;;;;;;11.27;10.77;;;;;;;;;;5061977;28;20024;-64
2023/10/18 14:32:20;;;;;;;11.10;10.60;;;;;;;;;;5070930;28;20094;-64
2023/10/18 14:34:49;;;;;;;11.50;11.00;;;;;;;;;;5068337;28;20016;-64
2023/10/18 14:37:14;;;;;;;10.88;10.38;;;;;;;;;;5065487;28;20032;-64
2023/10/18 14:39:39;;;;;;;11.48;10.98;;;;;;;;;;5070235;28;20382;-63
2023/10/18 14:42:06;;;;;;;11.18;10.68;;;;;;;;;;5062948;28;20020;-64
2023/10/18 14:44:32;;;;;;;11.07;10.57;;;;;;;;;;5063486;28;20052;-64
2023/10/18 14:46:58;;;;;;;11.60;11.10;;;;;;;;;;5070213;28;20074;-63
2023/10/18 14:49:23;;;;;;;11.00;10.50;;;;;;;;;;5076298;28;20716;-64
2023/10/18 14:51:48;;;;;;;11.30;10.80;;;;;;;;;;5062913;28;20477;-64
2023/10/18 14:54:18;;;;;;;11.82;11.27;;;;;;;;;;5059282;28;20016;-64
2023/10/18 14:56:44;;;;;;;10.90;10.40;;;;;;;;;;5068471;28;20024;-64
2023/10/18 14:59:09;;;;;;;11.40;10.90;;;;;;;;;;5059745;28;20505;-63
2023/10/18 15:01:35;;;;;;;11.18;10.68;;;;;;;;;;5065812;28;20035;-64
2023/10/18 15:04:03;;;;;;;10.90;10.40;;;;;;;;;;5060133;28;20148;-63
2023/10/18 15:06:28;;;;;;;11.00;10.50;;;;;;;;;;5059431;28;20056;-64
2023/10/18 15:08:55;;;;;;;10.80;10.30;;;;;;;;;;5071350;28;20055;-64
2023/10/18 15:11:20;;;;;;;11.68;11.18;;;;;;;;;;5063245;28;20568;-63
2023/10/18 15:13:49;;;;;;;11.00;10.50;;;;;;;;;;5062764;28;20048;-64
2023/10/18 15:16:15;;;;;;;11.07;10.57;;;;;;;;;;5068475;28;20037;-65
2023/10/18 15:18:41;;;;;;;12.23;11.63;;;;;;;;;;5058103;28;20159;-63
2023/10/18 15:21:15;;;;;;;12.02;11.45;;;;;;;;;;5054966;28;20116;-63
2023/10/18 15:23:40;;;;;;;;;;;;;;;;;;5062248;28;20027;-64